Bookmark and Share
Track history (hours):
 

Alleycat

More information available from US FCC via Universal Licensing System and Coast Guard Vessel Documentation Center.

Last reported at 2014-Apr-17 23:33 UTC. Time now 2014-Apr-18 00:22 UTC.
Position N 29°56' W 090°20'.

Length 22 m; draft 2.8 m.

Type: Tug. MMSI: 366459132.

NotesDate/timePositionNaut miles runAvg speedWind from/ knotsBaromVisibWave heightAir tempDewpointWater temp
2014-Apr-17 23:33N 29°56' W 090°20'2 0.1
2014-Apr-17 11:33N 29°56' W 090°22'2 1.7
2014-Apr-17 10:32N 29°56' W 090°20'0 0.0
2014-Apr-17 09:30N 29°56' W 090°20'0 0.4
2014-Apr-17 08:32N 29°56' W 090°21'1 0.7
2014-Apr-17 07:33N 29°56' W 090°20'0 0.3
2014-Apr-17 06:32N 29°56' W 090°20'2 2.2
2014-Apr-17 05:28N 29°57' W 090°23'3 2.8
2014-Apr-17 04:32N 29°56' W 090°20'0 0.4
2014-Apr-17 03:33N 29°56' W 090°20'0 0.2
2014-Apr-17 02:33N 29°56' W 090°20'1 0.5
2014-Apr-17 01:23N 29°56' W 090°21'2 2.3
2014-Apr-17 00:33N 29°56' W 090°19'2 1.4
2014-Apr-16 23:23N 29°56' W 090°20'0 0.3
2014-Apr-16 22:32N 29°56' W 090°20'0 0.0
2014-Apr-16 12:22N 29°56' W 090°20'1 1.4
2014-Apr-16 11:33N 29°56' W 090°21'1 0.7
2014-Apr-16 10:31N 29°56' W 090°20'0 0.1
2014-Apr-16 09:33N 29°56' W 090°20'1 0.8
2014-Apr-16 08:28N 29°56' W 090°21'2 2.4
2014-Apr-16 07:27N 29°57' W 090°19'2 2.7
2014-Apr-16 06:33N 29°56' W 090°21'1 1.2
2014-Apr-16 05:33N 29°56' W 090°20'2 1.5
2014-Apr-16 04:29N 29°56' W 090°22'1 1.4
2014-Apr-16 03:33N 29°56' W 090°20'1 0.7
2014-Apr-16 02:33N 29°56' W 090°20'1 0.6
2014-Apr-16 01:24N 29°56' W 090°20'1 1.3
2014-Apr-16 00:22N 29°56' W 090°22'1 0.7
2014-Apr-15 23:22N 29°56' W 090°21'1 0.1
2014-Apr-15 10:30N 29°56' W 090°20'0 0.1
2014-Apr-15 07:33N 29°56' W 090°20'0 0.1
2014-Apr-15 06:31N 29°56' W 090°20'0 0.0
2014-Apr-15 05:33N 29°56' W 090°20'1 0.7
2014-Apr-15 03:33N 29°57' W 090°19'2 1.8
2014-Apr-15 02:33N 29°56' W 090°20'0 0.4
2014-Apr-15 01:32N 29°56' W 090°21'1 1.1
2014-Apr-15 00:33N 29°56' W 090°20'0 0.0
2014-Apr-14 10:33N 29°56' W 090°20'0 0.5
2014-Apr-14 09:33N 29°56' W 090°20'0 0.2
2014-Apr-14 08:30N 29°56' W 090°20'1 1.3
2014-Apr-14 07:30N 29°56' W 090°22'0 0.0
2014-Apr-14 06:32N 29°56' W 090°22'1 0.9
2014-Apr-14 05:32N 29°56' W 090°23'2 0.3
2014-Apr-13 21:08N 29°56' W 090°20'0 0.3
2014-Apr-13 20:14N 29°56' W 090°20'1 0.8
2014-Apr-13 19:33N 29°56' W 090°20'2 1.0
2014-Apr-13 17:33N 29°56' W 090°22'2 1.5
2014-Apr-13 16:27N 29°56' W 090°20'2 2.3
2014-Apr-13 15:33N 29°56' W 090°23'0 0.1
2014-Apr-13 12:33N 29°56' W 090°22'1 0.5
2014-Apr-13 11:33N 29°56' W 090°22'2 0.8
2014-Apr-13 09:16N 29°56' W 090°20'0 0.1
2014-Apr-13 08:33N 29°56' W 090°20'0 0.0
2014-Apr-13 07:33N 29°56' W 090°20'0 0.0
2014-Apr-13 06:33N 29°56' W 090°20'0 0.1
2014-Apr-13 05:33N 29°56' W 090°20'1 0.7
2014-Apr-13 04:32N 29°56' W 090°21'0 0.1
2014-Apr-13 03:31N 29°56' W 090°20'1 0.8
2014-Apr-13 02:24N 29°56' W 090°19'1 1.0
2014-Apr-13 01:33N 29°56' W 090°20'1 0.7
2014-Apr-13 00:24N 29°56' W 090°20'1 0.8
2014-Apr-12 23:30N 29°56' W 090°20'0 0.2
2014-Apr-12 21:11N 29°56' W 090°20'0 0.4
2014-Apr-12 20:34N 29°56' W 090°20'0 0.2
2014-Apr-12 19:16N 29°56' W 090°20'0 0.2
2014-Apr-12 17:33N 29°56' W 090°20'0 0.4
2014-Apr-12 16:33N 29°56' W 090°20'0 0.0
2014-Apr-12 09:14N 29°56' W 090°20'0 0.0
2014-Apr-12 08:30N 29°56' W 090°20'0 0.0
2014-Apr-12 07:33N 29°56' W 090°20'0 0.3
2014-Apr-12 06:33N 29°56' W 090°21'0 0.2
2014-Apr-12 05:33N 29°56' W 090°20'0 0.2
2014-Apr-12 04:27N 29°56' W 090°21'0 0.1
2014-Apr-12 03:26N 29°56' W 090°20'0 0.1
2014-Apr-12 02:33N 29°56' W 090°21'0 0.1
2014-Apr-12 01:29N 29°56' W 090°20'0 0.0
2014-Apr-12 00:27N 29°56' W 090°20'0 0.0
2014-Apr-11 23:32N 29°56' W 090°20'1 0.1
2014-Apr-11 12:22N 29°56' W 090°21'0 0.0
2014-Apr-11 11:32N 29°56' W 090°21'1 0.9
2014-Apr-11 10:25N 29°56' W 090°20'0 0.3
2014-Apr-11 09:28N 29°56' W 090°21'1 1.2
2014-Apr-11 08:33N 29°56' W 090°22'0 0.3
2014-Apr-11 07:20N 29°56' W 090°21'1 1.1
2014-Apr-11 06:32N 29°56' W 090°20'1 0.8
2014-Apr-11 05:33N 29°56' W 090°21'0 0.1
2014-Apr-11 04:33N 29°56' W 090°21'0 0.0
2014-Apr-11 03:33N 29°56' W 090°21'0 0.0
2014-Apr-11 02:29N 29°56' W 090°21'0 0.1
2014-Apr-11 01:32N 29°56' W 090°21'0 0.1
2014-Apr-11 00:29N 29°56' W 090°21'0 0.2
2014-Apr-10 23:28N 29°56' W 090°21'1 0.1
2014-Apr-10 12:25N 29°56' W 090°20'0 0.0
2014-Apr-10 11:33N 29°56' W 090°20'0 0.3
2014-Apr-10 10:32N 29°56' W 090°20'0 0.0
2014-Apr-10 09:33N 29°56' W 090°20'0 0.0
2014-Apr-10 08:33N 29°56' W 090°20'0 0.0
2014-Apr-10 07:25N 29°56' W 090°20'0 0.0
2014-Apr-10 05:17N 29°56' W 090°20'1 1.0
2014-Apr-10 04:33N 29°56' W 090°21'1 1.5
2014-Apr-10 03:33N 29°56' W 090°19'1 0.7
2014-Apr-10 02:30N 29°56' W 090°20'0 0.1
2014-Apr-10 01:33N 29°56' W 090°20'2 1.5
2014-Apr-10 00:33N 29°56' W 090°22'1 0.6
2014-Apr-09 23:29N 29°56' W 090°21'0 0.0
2014-Apr-09 12:09N 29°56' W 090°21'0 0.6
2014-Apr-09 11:33N 29°56' W 090°21'1 0.5
2014-Apr-09 09:32N 29°56' W 090°20'0 0.1
2014-Apr-09 08:33N 29°56' W 090°20'1 0.6
2014-Apr-09 07:25N 29°56' W 090°21'0 0.3
2014-Apr-09 06:26N 29°56' W 090°21'0 0.1
2014-Apr-09 05:12N 29°56' W 090°21'0 0.0
2014-Apr-09 04:32N 29°56' W 090°21'1 0.9
2014-Apr-09 03:33N 29°56' W 090°22'0 0.2
2014-Apr-09 02:33N 29°56' W 090°22'5 5.3
2014-Apr-09 01:33N 29°58' W 090°16'0 0.2
2014-Apr-08 23:27N 29°58' W 090°17'4 3.3
2014-Apr-08 22:23N 29°56' W 090°20'0 0.0
2014-Apr-08 11:19N 29°56' W 090°20'1 0.4
2014-Apr-08 09:26N 29°56' W 090°19'1 0.9
2014-Apr-08 08:33N 29°56' W 090°20'0 0.3
2014-Apr-08 07:32N 29°56' W 090°20'1 0.4
2014-Apr-08 06:09N 29°56' W 090°20'0 0.3
2014-Apr-08 05:33N 29°56' W 090°20'1 1.0
2014-Apr-08 04:31N 29°56' W 090°21'1 1.0
2014-Apr-08 03:33N 29°56' W 090°22'2 2.4
2014-Apr-08 02:33N 29°56' W 090°19'0 0.0
2014-Apr-08 01:29N 29°56' W 090°19'  

Dump ship's entire track history

sailing weather and tide predictions

Alleycat — WDC2435 — position and weather